Decoded Metar for KLRD (LAREDO in TX, USA) (IATA:LRD) | Meteo·Mobile Aviation Weather
aviador You're here:

KLRD Decoded Metar

LAREDO in TX, USA
Report Time2018-10-20 11:56:00
UTC Time2018-10-20 12:24:31
Flight Rules ifr IFR
Wind320° at 08 kt
W.Decomp.*RWY 32: 7.9 kt HW 1.1 kt LCW
RWY 35: 6.3 kt HW 4.9 kt LCW
W.Rank320° ranks 23
Current wind is below 320° avg. (9.3)
Visibility9999 m
Phenomena:N/A
Clouds:Overcast 005 Hf
Expected CloudBase > 400 ft AGL from Temp-Dew spread
Ceiling500 ft
Temp18°C (ISA +4)
Dew Point17°C (94% RH)
AAT17.5°C
QNH1020 hPa
Density Alt1,004 ft
Elevation509 ft
Report Wrong Elevation
Raw Report
KLRD 201156Z 32008KT 8SM OVC005 18/17 A3012 RMK AO2 SLP212
T01780172 10189 20178 53008=

Extra information for KLRD:More info

Metar Taf Metar & Taf Last 4 Metars F.Rules Stats Wind Profile Meteogram Temp Stats Airport Information Weather charts Add Link Nearby VenuesMetar ALERT Operation Metar Decoded Social comments

AIRNAV info for KLRD